Time;durP1;ratioP1;P1;durP2;ratioP2;P2;SDS_P1;SDS_P2;PMS_P1;PMS_P2;Temp;Humidity;BMP_temperature;BMP_pressure;BME280_temperature;BME280_humidity;BME280_pressure;Samples;Min_cycle;Max_cycle;Signal;HPM_P1;HPM_P2
2021/03/13 00:01:46;;;;;;;1999.90;999.90;;;;;;;;;;5120755;28;20218;-37
2021/03/13 00:04:32;;;;;;;1999.90;999.90;;;;;;;;;;5120329;28;20206;-37
2021/03/13 00:07:19;;;;;;;1999.90;999.90;;;;;;;;;;5120364;28;20202;-37
2021/03/13 00:10:06;;;;;;;1999.90;999.90;;;;;;;;;;5120503;28;20194;-38
2021/03/13 00:12:54;;;;;;;1999.90;999.90;;;;;;;;;;5120418;28;20300;-38
2021/03/13 00:15:40;;;;;;;1999.90;999.90;;;;;;;;;;5120465;28;20195;-37
2021/03/13 00:18:26;;;;;;;1999.90;999.90;;;;;;;;;;5120087;28;20201;-37
2021/03/13 00:21:12;;;;;;;1999.90;999.90;;;;;;;;;;5120417;28;20600;-38
2021/03/13 00:23:59;;;;;;;1999.90;999.90;;;;;;;;;;5120083;28;20238;-37
2021/03/13 00:26:49;;;;;;;1999.90;999.90;;;;;;;;;;5119988;28;20202;-37
2021/03/13 00:29:35;;;;;;;1999.90;999.90;;;;;;;;;;5119879;28;20210;-39
2021/03/13 00:32:27;;;;;;;1999.90;999.90;;;;;;;;;;5120174;28;20483;-34
2021/03/13 00:35:13;;;;;;;1999.90;999.90;;;;;;;;;;5119827;28;20245;-39
2021/03/13 00:37:59;;;;;;;1999.90;999.90;;;;;;;;;;5119777;28;20198;-39
2021/03/13 00:40:46;;;;;;;1999.90;999.90;;;;;;;;;;5119885;28;20207;-37
2021/03/13 00:43:32;;;;;;;1999.90;999.90;;;;;;;;;;5119368;28;20241;-36
2021/03/13 00:46:17;;;;;;;1999.90;999.90;;;;;;;;;;5119840;28;20616;-39
2021/03/13 00:49:03;;;;;;;1999.90;999.90;;;;;;;;;;5119151;28;20202;-36
2021/03/13 00:51:49;;;;;;;1999.90;999.90;;;;;;;;;;5119564;28;20267;-34
2021/03/13 00:54:35;;;;;;;1999.90;999.90;;;;;;;;;;5119072;28;20252;-36
2021/03/13 00:57:22;;;;;;;1999.90;999.90;;;;;;;;;;5119588;28;20287;-38
2021/03/13 01:00:15;;;;;;;1999.90;999.90;;;;;;;;;;5119605;28;20207;-38
2021/03/13 01:03:00;;;;;;;1999.90;999.90;;;;;;;;;;5119082;28;20230;-36
2021/03/13 01:05:47;;;;;;;1999.90;999.90;;;;;;;;;;5118840;28;20194;-38
2021/03/13 01:08:33;;;;;;;1999.90;999.90;;;;;;;;;;5118604;28;20194;-36
2021/03/13 01:11:18;;;;;;;1999.90;999.90;;;;;;;;;;5119211;28;20201;-39
2021/03/13 01:14:05;;;;;;;1999.90;999.90;;;;;;;;;;5119338;28;20199;-39
2021/03/13 01:16:51;;;;;;;1999.90;999.90;;;;;;;;;;5118937;28;20195;-33
2021/03/13 01:19:36;;;;;;;1999.90;999.90;;;;;;;;;;5119161;28;20627;-39
2021/03/13 01:22:22;;;;;;;1999.90;999.90;;;;;;;;;;5118864;28;20616;-38
2021/03/13 01:25:13;;;;;;;1999.90;999.90;;;;;;;;;;5118911;28;20199;-38
2021/03/13 01:27:58;;;;;;;1999.90;999.90;;;;;;;;;;5118842;28;20198;-38
2021/03/13 01:30:47;;;;;;;1999.90;999.90;;;;;;;;;;5119258;28;20620;-36
2021/03/13 01:33:34;;;;;;;1999.90;999.90;;;;;;;;;;5119108;28;20605;-35
2021/03/13 01:36:20;;;;;;;1999.90;999.90;;;;;;;;;;5118978;28;20207;-37
2021/03/13 01:39:06;;;;;;;1999.90;999.90;;;;;;;;;;5118657;28;20248;-38
2021/03/13 01:41:51;;;;;;;1999.90;999.90;;;;;;;;;;5119141;28;20199;-38
2021/03/13 01:44:37;;;;;;;1999.90;999.90;;;;;;;;;;5119476;28;20347;-37
2021/03/13 01:47:25;;;;;;;1999.90;999.90;;;;;;;;;;5118319;28;20190;-35
2021/03/13 01:50:14;;;;;;;1999.90;999.90;;;;;;;;;;5118733;28;20203;-34
2021/03/13 01:53:00;;;;;;;1999.90;999.90;;;;;;;;;;5118302;28;20280;-37
2021/03/13 01:55:46;;;;;;;1999.90;999.90;;;;;;;;;;5118656;28;20323;-36
2021/03/13 01:58:32;;;;;;;1999.90;999.90;;;;;;;;;;5118489;28;20190;-37
2021/03/13 02:01:28;;;;;;;1999.90;999.90;;;;;;;;;;5118206;28;20198;-36
2021/03/13 02:04:15;;;;;;;1999.90;999.90;;;;;;;;;;5118027;28;20246;-36
2021/03/13 02:07:03;;;;;;;1999.90;999.90;;;;;;;;;;5118500;28;20198;-36
2021/03/13 02:09:54;;;;;;;1999.90;999.90;;;;;;;;;;5117822;28;20288;-37
2021/03/13 02:12:48;;;;;;;1999.90;999.90;;;;;;;;;;5118344;28;20316;-36
2021/03/13 02:15:36;;;;;;;1999.90;999.90;;;;;;;;;;5118080;28;20202;-33
2021/03/13 02:18:26;;;;;;;1999.90;999.90;;;;;;;;;;5117701;28;20202;-36
2021/03/13 02:21:17;;;;;;;1999.90;999.90;;;;;;;;;;5117692;28;20588;-38
2021/03/13 02:24:09;;;;;;;1999.90;999.90;;;;;;;;;;5117825;28;20222;-36
2021/03/13 02:27:01;;;;;;;1999.90;999.90;;;;;;;;;;5117702;28;20477;-35
2021/03/13 02:29:52;;;;;;;1999.90;999.90;;;;;;;;;;5117872;28;20194;-37
2021/03/13 02:32:41;;;;;;;1999.90;999.90;;;;;;;;;;5117598;28;20324;-39
2021/03/13 02:35:29;;;;;;;1999.90;999.90;;;;;;;;;;5117374;28;20295;-35
2021/03/13 02:38:18;;;;;;;1999.90;999.90;;;;;;;;;;5117691;28;20299;-36
2021/03/13 02:41:06;;;;;;;1999.90;999.90;;;;;;;;;;5117545;28;20670;-34
2021/03/13 02:43:54;;;;;;;1999.90;999.90;;;;;;;;;;5117575;28;20331;-36
2021/03/13 02:46:41;;;;;;;1999.90;999.90;;;;;;;;;;5117484;28;20203;-37
2021/03/13 02:49:27;;;;;;;1999.90;999.90;;;;;;;;;;5117468;28;20593;-34
2021/03/13 02:52:14;;;;;;;1999.90;999.90;;;;;;;;;;5117799;28;20202;-37
2021/03/13 02:55:00;;;;;;;1999.90;999.90;;;;;;;;;;5117368;28;20190;-36
2021/03/13 02:57:47;;;;;;;1999.90;999.90;;;;;;;;;;5117347;28;20209;-35
2021/03/13 03:00:34;;;;;;;1999.90;999.90;;;;;;;;;;5117576;28;20473;-37
2021/03/13 03:03:21;;;;;;;1999.90;999.90;;;;;;;;;;5117463;28;20238;-37
2021/03/13 03:06:09;;;;;;;1999.90;999.90;;;;;;;;;;5117216;28;20297;-35
2021/03/13 03:08:56;;;;;;;1999.90;999.90;;;;;;;;;;5116965;28;20441;-35
2021/03/13 03:11:43;;;;;;;1999.90;999.90;;;;;;;;;;5117514;28;20197;-39
2021/03/13 03:14:30;;;;;;;1999.90;999.90;;;;;;;;;;5117301;28;20316;-38
2021/03/13 03:17:16;;;;;;;1999.90;999.90;;;;;;;;;;5117517;28;20450;-37
2021/03/13 03:20:05;;;;;;;1999.90;999.90;;;;;;;;;;5117464;28;20598;-38
2021/03/13 03:22:50;;;;;;;1999.90;999.90;;;;;;;;;;5117081;28;20236;-35
2021/03/13 03:25:36;;;;;;;1999.90;999.90;;;;;;;;;;5117158;28;20202;-38
2021/03/13 03:28:22;;;;;;;1999.90;999.90;;;;;;;;;;5117065;28;20469;-38
2021/03/13 03:31:08;;;;;;;1999.90;999.90;;;;;;;;;;5120948;28;20195;-38
2021/03/13 03:33:54;;;;;;;1999.90;999.90;;;;;;;;;;5121165;28;20201;-39
2021/03/13 03:36:42;;;;;;;1999.90;999.90;;;;;;;;;;5121053;28;20489;-36
2021/03/13 03:39:29;;;;;;;1999.90;999.90;;;;;;;;;;5121038;28;20215;-38
2021/03/13 03:42:15;;;;;;;1999.90;999.90;;;;;;;;;;5121173;28;20205;-35
2021/03/13 03:45:02;;;;;;;1999.90;999.90;;;;;;;;;;5120877;28;20208;-38
2021/03/13 03:47:49;;;;;;;1999.90;999.90;;;;;;;;;;5120902;28;20204;-34
2021/03/13 03:50:35;;;;;;;1999.90;999.90;;;;;;;;;;5120802;28;20197;-37
2021/03/13 03:53:24;;;;;;;1999.90;999.90;;;;;;;;;;5120624;28;20345;-37
2021/03/13 03:56:10;;;;;;;1999.90;999.90;;;;;;;;;;5120291;28;20713;-34
2021/03/13 03:58:56;;;;;;;1999.90;999.90;;;;;;;;;;5120865;28;20196;-39
2021/03/13 04:01:43;;;;;;;1999.90;999.90;;;;;;;;;;5120670;28;20269;-38
2021/03/13 04:04:30;;;;;;;1999.90;999.90;;;;;;;;;;5120439;28;20378;-38
2021/03/13 04:07:17;;;;;;;1999.90;999.90;;;;;;;;;;5120492;28;20197;-36
2021/03/13 04:10:05;;;;;;;1999.90;999.90;;;;;;;;;;5120594;28;20217;-37
2021/03/13 04:12:51;;;;;;;1999.90;999.90;;;;;;;;;;5120561;28;20200;-37
2021/03/13 04:15:38;;;;;;;1999.90;999.90;;;;;;;;;;5120073;28;20499;-40
2021/03/13 04:18:24;;;;;;;1999.90;999.90;;;;;;;;;;5119987;28;20263;-40
2021/03/13 04:21:10;;;;;;;1999.90;999.90;;;;;;;;;;5120278;28;20204;-35
2021/03/13 04:23:56;;;;;;;1999.90;999.90;;;;;;;;;;5119922;28;20225;-40
2021/03/13 04:26:43;;;;;;;1999.90;999.90;;;;;;;;;;5120477;28;20208;-40
2021/03/13 04:29:29;;;;;;;1999.90;999.90;;;;;;;;;;5119659;28;20216;-39
2021/03/13 04:32:17;;;;;;;1999.90;999.90;;;;;;;;;;5119936;28;20195;-40
2021/03/13 04:35:02;;;;;;;1999.90;999.90;;;;;;;;;;5120083;28;20195;-36
2021/03/13 04:37:49;;;;;;;1999.90;999.90;;;;;;;;;;5120091;28;20242;-41
2021/03/13 04:40:34;;;;;;;1999.90;999.90;;;;;;;;;;5119545;27;20204;-40
2021/03/13 04:43:22;;;;;;;1999.90;999.90;;;;;;;;;;5119690;28;20223;-39
2021/03/13 04:46:08;;;;;;;1999.90;999.90;;;;;;;;;;5119824;28;20211;-39
2021/03/13 04:48:57;;;;;;;1999.90;999.90;;;;;;;;;;5119878;28;20196;-39
2021/03/13 04:51:43;;;;;;;1999.90;999.90;;;;;;;;;;5119993;28;20525;-41
2021/03/13 04:54:29;;;;;;;1999.90;999.90;;;;;;;;;;5119488;28;20466;-40
2021/03/13 04:57:16;;;;;;;1999.90;999.90;;;;;;;;;;5119722;28;20203;-40
2021/03/13 05:00:02;;;;;;;1999.90;999.90;;;;;;;;;;5119558;28;20200;-41
2021/03/13 05:02:48;;;;;;;1999.90;999.90;;;;;;;;;;5118759;28;20286;-37
2021/03/13 05:05:37;;;;;;;1999.90;999.90;;;;;;;;;;5119329;28;20486;-41
2021/03/13 05:08:23;;;;;;;1999.90;999.90;;;;;;;;;;5119525;28;20564;-39
2021/03/13 05:11:09;;;;;;;1999.90;999.90;;;;;;;;;;5119111;28;20260;-38
2021/03/13 05:13:56;;;;;;;1999.90;999.90;;;;;;;;;;5119121;28;20200;-41
2021/03/13 05:16:42;;;;;;;1999.90;999.90;;;;;;;;;;5119005;28;20347;-40
2021/03/13 05:19:28;;;;;;;1999.90;999.90;;;;;;;;;;5118894;28;20216;-40
2021/03/13 05:22:13;;;;;;;1999.90;999.90;;;;;;;;;;5119193;28;20200;-41
2021/03/13 05:24:59;;;;;;;1999.90;999.90;;;;;;;;;;5118719;28;20229;-44
2021/03/13 05:27:45;;;;;;;1999.90;999.90;;;;;;;;;;5118881;28;20247;-44
2021/03/13 05:30:31;;;;;;;1999.90;999.90;;;;;;;;;;5118816;28;20204;-44
2021/03/13 05:33:17;;;;;;;1999.90;999.90;;;;;;;;;;5117988;28;20193;-44
2021/03/13 05:36:04;;;;;;;1999.90;999.90;;;;;;;;;;5118745;28;20611;-44
2021/03/13 05:38:49;;;;;;;1999.90;999.90;;;;;;;;;;5118537;28;20494;-45
2021/03/13 05:41:36;;;;;;;1999.90;999.90;;;;;;;;;;5118801;28;20308;-44
2021/03/13 05:44:22;;;;;;;1999.90;999.90;;;;;;;;;;5118856;28;20226;-44
2021/03/13 05:47:07;;;;;;;1999.90;999.90;;;;;;;;;;5118488;28;20283;-44
2021/03/13 05:49:59;;;;;;;1999.90;999.90;;;;;;;;;;5117819;28;20729;-44
2021/03/13 05:52:46;;;;;;;1999.90;999.90;;;;;;;;;;5118044;28;20199;-43
2021/03/13 05:55:32;;;;;;;1999.90;999.90;;;;;;;;;;5118609;28;20487;-45
2021/03/13 05:58:18;;;;;;;1999.90;999.90;;;;;;;;;;5118690;28;20205;-45
2021/03/13 06:01:05;;;;;;;1999.90;999.90;;;;;;;;;;5118426;28;20218;-44
2021/03/13 06:03:51;;;;;;;1999.90;999.90;;;;;;;;;;5117982;28;20621;-45
2021/03/13 06:06:39;;;;;;;1999.90;999.90;;;;;;;;;;5118272;28;20201;-45
2021/03/13 06:09:25;;;;;;;1999.90;999.90;;;;;;;;;;5117643;28;20206;-44
2021/03/13 06:12:11;;;;;;;1999.90;999.90;;;;;;;;;;5117971;28;20201;-44
2021/03/13 06:14:58;;;;;;;1999.90;999.90;;;;;;;;;;5118723;28;20195;-45
2021/03/13 06:17:54;;;;;;;1999.90;999.90;;;;;;;;;;5117923;28;20279;-45
2021/03/13 06:20:40;;;;;;;1999.90;999.90;;;;;;;;;;5117715;28;20287;-45
2021/03/13 06:23:32;;;;;;;1999.90;999.90;;;;;;;;;;5117765;28;20367;-45
2021/03/13 06:26:18;;;;;;;1999.90;999.90;;;;;;;;;;5117902;28;20209;-44
2021/03/13 06:29:15;;;;;;;1999.90;999.90;;;;;;;;;;5116589;28;20194;-45
2021/03/13 06:32:05;;;;;;;1999.90;999.90;;;;;;;;;;5117320;28;20601;-44
2021/03/13 06:35:22;;;;;;;1999.90;999.90;;;;;;;;;;5117584;28;20190;-45
2021/03/13 06:38:15;;;;;;;1999.90;999.90;;;;;;;;;;5117644;28;20208;-45
2021/03/13 06:41:12;;;;;;;1999.90;999.90;;;;;;;;;;5117340;28;20352;-45
2021/03/13 06:43:58;;;;;;;1999.90;999.90;;;;;;;;;;5117311;28;20222;-45
2021/03/13 06:46:44;;;;;;;1999.90;999.90;;;;;;;;;;5117658;28;20287;-45
2021/03/13 06:49:30;;;;;;;1999.90;999.90;;;;;;;;;;5117498;28;20271;-45
2021/03/13 06:52:19;;;;;;;1999.90;999.90;;;;;;;;;;5137033;27;20201;-44
2021/03/13 06:55:07;;;;;;;1999.90;999.90;;;;;;;;;;5138368;27;20194;-46
2021/03/13 06:58:05;;;;;;;1999.90;999.90;;;;;;;;;;5138283;27;20298;-45
2021/03/13 07:01:05;;;;;;;1999.90;999.90;;;;;;;;;;5137622;27;20202;-45
2021/03/13 07:03:51;;;;;;;1999.90;999.90;;;;;;;;;;5138574;27;20343;-44
2021/03/13 07:06:44;;;;;;;1999.90;999.90;;;;;;;;;;5138389;27;20603;-45
2021/03/13 07:09:46;;;;;;;1999.90;999.90;;;;;;;;;;5137670;27;20255;-45
2021/03/13 07:12:39;;;;;;;1999.90;999.90;;;;;;;;;;5138070;28;20638;-45
2021/03/13 07:15:26;;;;;;;1999.90;999.90;;;;;;;;;;5137537;28;20193;-44
2021/03/13 07:18:12;;;;;;;1999.90;999.90;;;;;;;;;;5137689;28;20287;-44
2021/03/13 07:20:58;;;;;;;1999.90;999.90;;;;;;;;;;5137210;28;20201;-45
2021/03/13 07:23:44;;;;;;;1999.90;999.90;;;;;;;;;;5137335;28;20233;-45
2021/03/13 07:26:33;;;;;;;1999.90;999.90;;;;;;;;;;5137354;28;20501;-45
2021/03/13 07:29:22;;;;;;;1999.90;999.90;;;;;;;;;;5137305;28;20482;-44
2021/03/13 07:32:14;;;;;;;1999.90;999.90;;;;;;;;;;5137109;27;20255;-45
2021/03/13 07:35:04;;;;;;;1999.90;999.90;;;;;;;;;;5137511;28;20637;-44
2021/03/13 07:37:53;;;;;;;1999.90;999.90;;;;;;;;;;5137309;28;20222;-44
2021/03/13 07:40:40;;;;;;;1999.90;999.90;;;;;;;;;;5137197;28;20283;-44
2021/03/13 07:43:30;;;;;;;1999.90;999.90;;;;;;;;;;5136976;28;20213;-45
2021/03/13 07:46:16;;;;;;;1999.90;999.90;;;;;;;;;;5137586;28;20201;-45
2021/03/13 07:49:04;;;;;;;1999.90;999.90;;;;;;;;;;5136765;28;20198;-44
2021/03/13 07:51:50;;;;;;;1999.90;999.90;;;;;;;;;;5136901;28;20286;-44
2021/03/13 07:54:39;;;;;;;1999.90;999.90;;;;;;;;;;5137095;28;20631;-45
2021/03/13 07:57:28;;;;;;;1999.90;999.90;;;;;;;;;;5136570;28;20613;-50
2021/03/13 08:00:14;;;;;;;1999.90;999.90;;;;;;;;;;5137015;28;20291;-45
2021/03/13 08:03:00;;;;;;;1999.90;999.90;;;;;;;;;;5137476;27;20233;-45
2021/03/13 08:05:55;;;;;;;1999.90;999.90;;;;;;;;;;5136904;28;20201;-45
2021/03/13 08:08:45;;;;;;;1999.90;999.90;;;;;;;;;;5136773;28;20258;-45
2021/03/13 08:11:47;;;;;;;1999.90;999.90;;;;;;;;;;5137089;28;20286;-44
2021/03/13 08:14:43;;;;;;;1999.90;999.90;;;;;;;;;;5136062;28;20210;-45
2021/03/13 08:17:39;;;;;;;1999.90;999.90;;;;;;;;;;5139665;27;20264;-45
2021/03/13 08:20:28;;;;;;;1999.90;999.90;;;;;;;;;;5140299;27;20591;-44
2021/03/13 08:23:21;;;;;;;1999.90;999.90;;;;;;;;;;5140193;27;20215;-44
2021/03/13 08:26:08;;;;;;;1999.90;999.90;;;;;;;;;;5140245;27;20604;-44
2021/03/13 08:28:56;;;;;;;1999.90;999.90;;;;;;;;;;5140025;27;20452;-44
2021/03/13 08:31:45;;;;;;;1999.90;999.90;;;;;;;;;;5139731;27;20206;-44
2021/03/13 08:34:44;;;;;;;1999.90;999.90;;;;;;;;;;5140346;27;20271;-45
2021/03/13 08:37:46;;;;;;;1999.90;999.90;;;;;;;;;;5139847;27;20336;-43
2021/03/13 08:40:41;;;;;;;1999.90;999.90;;;;;;;;;;5140200;27;20508;-44
2021/03/13 08:43:33;;;;;;;1999.90;999.90;;;;;;;;;;5140340;27;20660;-43
2021/03/13 08:46:38;;;;;;;1999.90;999.90;;;;;;;;;;5140306;27;20201;-44
2021/03/13 08:49:38;;;;;;;1999.90;999.90;;;;;;;;;;5140424;27;20190;-50
2021/03/13 08:52:25;;;;;;;1999.90;999.90;;;;;;;;;;5140387;27;20202;-44
2021/03/13 08:55:16;;;;;;;1999.90;999.90;;;;;;;;;;5140012;27;20190;-44
2021/03/13 08:58:06;;;;;;;1999.90;999.90;;;;;;;;;;5139967;27;20621;-44
2021/03/13 09:00:52;;;;;;;1999.90;999.90;;;;;;;;;;5139798;27;20271;-44
2021/03/13 09:03:45;;;;;;;1999.90;999.90;;;;;;;;;;5139755;27;20294;-45
2021/03/13 09:06:49;;;;;;;1999.90;999.90;;;;;;;;;;5139544;27;20205;-44
2021/03/13 09:09:36;;;;;;;1999.90;999.90;;;;;;;;;;5139850;27;20197;-44
2021/03/13 09:12:23;;;;;;;1999.90;999.90;;;;;;;;;;5139907;27;20263;-44
2021/03/13 09:15:11;;;;;;;1999.90;999.90;;;;;;;;;;5140121;27;20198;-43
2021/03/13 09:17:56;;;;;;;1999.90;999.90;;;;;;;;;;5139616;27;20340;-44
2021/03/13 09:20:42;;;;;;;1999.90;999.90;;;;;;;;;;5139376;27;20201;-44
2021/03/13 09:23:28;;;;;;;1999.90;999.90;;;;;;;;;;5139075;27;20464;-44
2021/03/13 09:26:14;;;;;;;1999.90;999.90;;;;;;;;;;5139551;27;20298;-44
2021/03/13 09:29:00;;;;;;;1999.90;999.90;;;;;;;;;;5138597;27;20201;-43
2021/03/13 09:31:53;;;;;;;1999.90;999.90;;;;;;;;;;5139039;27;20197;-43
2021/03/13 09:34:39;;;;;;;1999.90;999.90;;;;;;;;;;5138940;27;20331;-43
2021/03/13 09:37:26;;;;;;;1999.90;999.90;;;;;;;;;;5139244;27;20206;-43
2021/03/13 09:40:13;;;;;;;1999.90;999.90;;;;;;;;;;5139449;27;20193;-43
2021/03/13 09:43:01;;;;;;;1999.90;999.90;;;;;;;;;;5138849;27;20539;-44
2021/03/13 09:45:47;;;;;;;1999.90;999.90;;;;;;;;;;5139138;27;20218;-44
2021/03/13 09:48:33;;;;;;;1999.90;999.90;;;;;;;;;;5138619;27;20543;-44
2021/03/13 09:51:26;;;;;;;1999.90;999.90;;;;;;;;;;5138775;27;20205;-42
2021/03/13 09:54:17;;;;;;;1999.90;999.90;;;;;;;;;;5119191;27;20233;-42
2021/03/13 09:57:08;;;;;;;1999.90;999.90;;;;;;;;;;5118839;28;20291;-42
2021/03/13 09:59:54;;;;;;;1999.90;999.90;;;;;;;;;;5117672;28;20198;-42
2021/03/13 10:02:42;;;;;;;1999.90;999.90;;;;;;;;;;5117459;28;20392;-42
2021/03/13 10:05:30;;;;;;;1999.90;999.90;;;;;;;;;;5117901;28;20225;-42
2021/03/13 10:08:17;;;;;;;1999.90;999.90;;;;;;;;;;5117524;28;20202;-42
2021/03/13 10:11:11;;;;;;;1999.90;999.90;;;;;;;;;;5117279;28;20297;-42
2021/03/13 10:14:00;;;;;;;1999.90;999.90;;;;;;;;;;5118157;28;20194;-41
2021/03/13 10:16:46;;;;;;;1999.90;999.90;;;;;;;;;;5117720;28;20202;-42
2021/03/13 10:19:36;;;;;;;1999.90;999.90;;;;;;;;;;5118052;28;20214;-42
2021/03/13 10:22:24;;;;;;;1999.90;999.90;;;;;;;;;;5117609;28;20616;-42
2021/03/13 10:25:10;;;;;;;1999.90;999.90;;;;;;;;;;5117094;28;20269;-43
2021/03/13 10:28:02;;;;;;;1999.90;999.90;;;;;;;;;;5117764;28;20226;-42
2021/03/13 10:30:47;;;;;;;1999.90;999.90;;;;;;;;;;5118946;27;20198;-53
2021/03/13 10:33:34;;;;;;;1999.90;999.90;;;;;;;;;;5117837;28;20489;-42
2021/03/13 10:36:21;;;;;;;1999.90;999.90;;;;;;;;;;5117687;28;20581;-43
2021/03/13 10:39:08;;;;;;;1999.90;999.90;;;;;;;;;;5116348;28;20743;-43
2021/03/13 10:41:56;;;;;;;1999.90;999.90;;;;;;;;;;5117226;28;20439;-42
2021/03/13 10:44:42;;;;;;;1999.90;999.90;;;;;;;;;;5117985;28;20227;-43
2021/03/13 10:47:28;;;;;;;1999.90;999.90;;;;;;;;;;5117853;28;20348;-42
2021/03/13 10:50:14;;;;;;;1999.90;999.90;;;;;;;;;;5116960;28;20202;-43
2021/03/13 10:53:00;;;;;;;1999.90;999.90;;;;;;;;;;5117064;28;20312;-42
2021/03/13 10:55:51;;;;;;;1999.90;999.90;;;;;;;;;;5130550;27;20192;-42
2021/03/13 10:58:38;;;;;;;1999.90;999.90;;;;;;;;;;5119038;27;20210;-42
2021/03/13 11:01:24;;;;;;;1999.90;999.90;;;;;;;;;;5118090;28;20347;-43
2021/03/13 11:04:10;;;;;;;1999.90;999.90;;;;;;;;;;5129392;27;20343;-43
2021/03/13 11:07:00;;;;;;;1999.90;999.90;;;;;;;;;;5137545;27;20255;-43
2021/03/13 11:09:48;;;;;;;1999.90;999.90;;;;;;;;;;5124694;27;20612;-43
2021/03/13 11:12:36;;;;;;;1999.90;999.90;;;;;;;;;;5117266;28;20256;-44
2021/03/13 11:15:23;;;;;;;1999.90;999.90;;;;;;;;;;5117292;28;20198;-44
2021/03/13 11:18:09;;;;;;;1999.90;999.90;;;;;;;;;;5117012;28;20202;-44
2021/03/13 11:20:55;;;;;;;1999.90;999.90;;;;;;;;;;5116605;28;20209;-43
2021/03/13 11:23:41;;;;;;;1999.90;999.90;;;;;;;;;;5117012;28;20276;-43
2021/03/13 11:26:27;;;;;;;1999.90;999.90;;;;;;;;;;5116694;28;20202;-43
2021/03/13 11:29:14;;;;;;;1999.90;999.90;;;;;;;;;;5117091;28;20634;-43
2021/03/13 11:32:01;;;;;;;1999.90;999.90;;;;;;;;;;5116108;28;20595;-43
2021/03/13 11:34:47;;;;;;;1999.90;999.90;;;;;;;;;;5116478;28;20189;-43
2021/03/13 11:37:32;;;;;;;1999.90;999.90;;;;;;;;;;5116733;28;20227;-42
2021/03/13 11:40:22;;;;;;;1999.90;999.90;;;;;;;;;;5116526;28;20313;-43
2021/03/13 11:43:09;;;;;;;1999.90;999.90;;;;;;;;;;5116451;28;20626;-43
2021/03/13 11:45:56;;;;;;;1999.90;999.90;;;;;;;;;;5116501;28;20219;-43
2021/03/13 11:48:43;;;;;;;1999.90;999.90;;;;;;;;;;5116753;28;20218;-43
2021/03/13 11:51:29;;;;;;;1999.90;999.90;;;;;;;;;;5118004;28;20218;-43
2021/03/13 11:54:15;;;;;;;1999.90;999.90;;;;;;;;;;5120138;28;20452;-43
2021/03/13 11:57:03;;;;;;;1999.90;999.90;;;;;;;;;;5121322;27;20299;-43
2021/03/13 11:59:49;;;;;;;1999.90;999.90;;;;;;;;;;5119718;28;20213;-43
2021/03/13 12:02:36;;;;;;;1999.90;999.90;;;;;;;;;;5120309;28;20234;-43
2021/03/13 12:05:22;;;;;;;1999.90;999.90;;;;;;;;;;5121101;28;20518;-43
2021/03/13 12:08:18;;;;;;;1999.90;999.90;;;;;;;;;;5128562;27;20289;-44
2021/03/13 12:11:04;;;;;;;1999.90;999.90;;;;;;;;;;5120346;28;20206;-43
2021/03/13 12:13:50;;;;;;;1999.90;999.90;;;;;;;;;;5130453;27;20255;-44
2021/03/13 12:16:36;;;;;;;1999.90;999.90;;;;;;;;;;5141112;27;20197;-43
2021/03/13 12:19:26;;;;;;;1999.90;999.90;;;;;;;;;;5139819;27;20311;-44
2021/03/13 12:22:11;;;;;;;1999.90;999.90;;;;;;;;;;5139956;27;20205;-44
2021/03/13 12:24:59;;;;;;;1999.90;999.90;;;;;;;;;;5140134;27;20226;-43
2021/03/13 12:27:47;;;;;;;1999.90;999.90;;;;;;;;;;5140450;27;20495;-43
2021/03/13 12:30:34;;;;;;;1999.90;999.90;;;;;;;;;;5140199;27;20248;-42
2021/03/13 12:33:22;;;;;;;1999.90;999.90;;;;;;;;;;5140067;27;20414;-43
2021/03/13 12:36:09;;;;;;;1999.90;999.90;;;;;;;;;;5139884;27;20279;-42
2021/03/13 12:38:55;;;;;;;1999.90;999.90;;;;;;;;;;5140634;27;20299;-42
2021/03/13 12:41:41;;;;;;;1999.90;999.90;;;;;;;;;;5139514;27;20256;-42
2021/03/13 12:44:27;;;;;;;1999.90;999.90;;;;;;;;;;5131274;27;20551;-43
2021/03/13 12:47:15;;;;;;;1999.90;999.90;;;;;;;;;;5119287;28;20280;-43
2021/03/13 12:50:03;;;;;;;1999.90;999.90;;;;;;;;;;5118373;27;20197;-43
2021/03/13 12:53:04;;;;;;;1999.90;999.90;;;;;;;;;;5119224;28;20210;-43
2021/03/13 12:55:55;;;;;;;1999.90;999.90;;;;;;;;;;5119615;28;20195;-42
2021/03/13 12:58:41;;;;;;;1999.90;999.90;;;;;;;;;;5118412;28;20214;-43
2021/03/13 13:01:28;;;;;;;1999.90;999.90;;;;;;;;;;5118178;28;20208;-43
2021/03/13 13:04:19;;;;;;;1999.90;999.90;;;;;;;;;;5119132;28;20234;-42
2021/03/13 13:07:08;;;;;;;1999.90;999.90;;;;;;;;;;5120151;27;20202;-44
2021/03/13 13:09:59;;;;;;;1999.90;999.90;;;;;;;;;;5139581;27;20490;-44
2021/03/13 13:12:45;;;;;;;1999.90;999.90;;;;;;;;;;5139255;27;20355;-43
2021/03/13 13:15:30;;;;;;;1999.90;999.90;;;;;;;;;;5138868;27;20202;-43
2021/03/13 13:18:17;;;;;;;1999.90;999.90;;;;;;;;;;5139559;27;20206;-43
2021/03/13 13:21:03;;;;;;;1999.90;999.90;;;;;;;;;;5139576;27;20581;-42
2021/03/13 13:23:50;;;;;;;1999.90;999.90;;;;;;;;;;5139789;27;20193;-41
2021/03/13 13:26:37;;;;;;;1999.90;999.90;;;;;;;;;;5139519;27;20306;-43
2021/03/13 13:29:24;;;;;;;1999.90;999.90;;;;;;;;;;5139011;27;20329;-42
2021/03/13 13:32:10;;;;;;;1999.90;999.90;;;;;;;;;;5139190;27;20291;-42
2021/03/13 13:34:57;;;;;;;1999.90;999.90;;;;;;;;;;5139153;27;20205;-42
2021/03/13 13:37:43;;;;;;;1999.90;999.90;;;;;;;;;;5138840;27;20206;-43
2021/03/13 13:40:28;;;;;;;1999.90;999.90;;;;;;;;;;5126099;27;20225;-42
2021/03/13 13:43:17;;;;;;;1999.90;999.90;;;;;;;;;;5118128;28;20204;-43
2021/03/13 13:46:03;;;;;;;1999.90;999.90;;;;;;;;;;5118373;28;20627;-42
2021/03/13 13:48:49;;;;;;;1999.90;999.90;;;;;;;;;;5117988;28;20196;-43
2021/03/13 13:51:34;;;;;;;1999.90;999.90;;;;;;;;;;5118210;28;20202;-42
2021/03/13 13:54:26;;;;;;;1999.90;999.90;;;;;;;;;;5118426;28;20245;-43
2021/03/13 13:57:11;;;;;;;1999.90;999.90;;;;;;;;;;5118005;28;20307;-43
2021/03/13 13:59:58;;;;;;;1999.90;999.90;;;;;;;;;;5118480;28;20590;-42
2021/03/13 14:02:45;;;;;;;1999.90;999.90;;;;;;;;;;5117484;28;20651;-43
2021/03/13 14:05:30;;;;;;;1999.90;999.90;;;;;;;;;;5118073;28;20320;-42
2021/03/13 14:08:19;;;;;;;1999.90;999.90;;;;;;;;;;5118120;28;20303;-43
2021/03/13 14:11:05;;;;;;;1999.90;999.90;;;;;;;;;;5118465;28;20344;-42
2021/03/13 14:13:51;;;;;;;1999.90;999.90;;;;;;;;;;5117199;28;20202;-42
2021/03/13 14:16:38;;;;;;;1999.90;999.90;;;;;;;;;;5118373;28;20190;-42
2021/03/13 14:19:24;;;;;;;1999.90;999.90;;;;;;;;;;5117696;28;20210;-42
2021/03/13 14:22:09;;;;;;;1999.90;999.90;;;;;;;;;;5117936;28;20283;-42
2021/03/13 14:24:55;;;;;;;1999.90;999.90;;;;;;;;;;5117723;28;20230;-42
2021/03/13 14:27:42;;;;;;;1999.90;999.90;;;;;;;;;;5117744;28;20193;-42
2021/03/13 14:30:28;;;;;;;1999.90;999.90;;;;;;;;;;5117272;28;20608;-42
2021/03/13 14:33:18;;;;;;;1999.90;999.90;;;;;;;;;;5117401;28;20272;-42
2021/03/13 14:36:07;;;;;;;1999.90;999.90;;;;;;;;;;5117456;28;20194;-42
2021/03/13 14:38:53;;;;;;;1999.90;999.90;;;;;;;;;;5118282;28;20210;-42
2021/03/13 14:41:38;;;;;;;1999.90;999.90;;;;;;;;;;5116591;28;20596;-42
2021/03/13 14:44:26;;;;;;;1999.90;999.90;;;;;;;;;;5116965;28;20205;-42
2021/03/13 14:47:15;;;;;;;1999.90;999.90;;;;;;;;;;5117913;28;20193;-42
2021/03/13 14:50:03;;;;;;;1999.90;999.90;;;;;;;;;;5116319;28;20244;-42
2021/03/13 14:52:50;;;;;;;1999.90;999.90;;;;;;;;;;5116302;28;20488;-42
2021/03/13 14:55:36;;;;;;;1999.90;999.90;;;;;;;;;;5115959;28;20189;-42
2021/03/13 14:58:23;;;;;;;1999.90;999.90;;;;;;;;;;5116478;28;20198;-42
2021/03/13 15:01:09;;;;;;;1999.90;999.90;;;;;;;;;;5116860;28;20197;-42
2021/03/13 15:03:55;;;;;;;1999.90;999.90;;;;;;;;;;5116333;28;20702;-42
2021/03/13 15:06:41;;;;;;;1999.90;999.90;;;;;;;;;;5116894;28;20211;-42
2021/03/13 15:09:27;;;;;;;1999.90;999.90;;;;;;;;;;5127493;27;20218;-42
2021/03/13 15:12:16;;;;;;;1999.90;999.90;;;;;;;;;;5137201;27;20204;-42
2021/03/13 15:15:04;;;;;;;1999.90;999.90;;;;;;;;;;5137362;28;20194;-42
2021/03/13 15:17:50;;;;;;;1999.90;999.90;;;;;;;;;;5138322;27;20463;-43
2021/03/13 15:20:37;;;;;;;1999.90;999.90;;;;;;;;;;5136939;28;20201;-43
2021/03/13 15:23:24;;;;;;;1999.90;999.90;;;;;;;;;;5137244;28;20269;-42
2021/03/13 15:26:09;;;;;;;1999.90;999.90;;;;;;;;;;5138127;27;20314;-42
2021/03/13 15:28:58;;;;;;;1999.90;999.90;;;;;;;;;;5139087;27;20209;-42
2021/03/13 15:31:44;;;;;;;1999.90;999.90;;;;;;;;;;5142192;27;20202;-43
2021/03/13 15:34:32;;;;;;;1999.90;999.90;;;;;;;;;;5142345;27;20198;-42
2021/03/13 15:37:20;;;;;;;1999.90;999.90;;;;;;;;;;5141939;27;20500;-43